Lynn Lake Airport
CYYL : now visible

Airfield :











YOU CAN JOIN US ON...

 
LOGIN :

Register | Disclaimer

   EN    FR    IT 

 









Legend :    VFR   Marginal VFR   IFR   Intensive IFR   Very Intensive IFR
Visi :
Ceiling :
>= 8 km
>= 3000ft
5 to 8 km
1000 to 3000 ft
1500m to 5 km
500 to 1000 ft
800 to 1500m
200 to 500 ft
< 800m
< 200 ft
Symbols :   Thunderstorms  Fog  Heavy snow  Heavy precipitations  Wind > 20 kt






- Airport Elevation : 1170 ft
- IATA code : YYL


CYYL - Lynn Lake

CURRENT METAR :
  • 282300Z AUTO 20014KT 140V230 9SM CLR 19/02 A3008 RMK SLP202 DENSITY ALT 1800FT

EXPIRED METARs :
  • 282200Z AUTO 17005G15KT 130V230 9SM CLR 18/01 A3011 RMK SLP210 DENSITY ALT 1700FT
  • 282100Z AUTO 21010KT 140V240 9SM CLR 18/01 A3013 RMK SLP217 DENSITY ALT 1600FT
  • 282000Z AUTO 20012G17KT 140V250 9SM CLR 18/M00 A3015 RMK SLP226 DENSITY ALT 1600FT
  • 281900Z AUTO 16007KT 120V210 9SM CLR 16/M00 A3017 RMK SLP233 DENSITY ALT 1400FT

TAF TAF CYYL
Valid from the 28 at 19:00 until the 29 at 07:00 UTC


281840Z 2819/2907 19005KT P6SM SKC
BECMG 2819/2821 19012KT
FM290300 19008KT P6SM SCT250 RMK FCST BASED ON AUTO OBS. NXT FCST BY 290100Z
CZWG FIR / North America



MET'MAP, your aeronautical weather chart ! - Copyright ORBIFLY December 2007 - Disclaimer

ORBIFLY MET'MAP TEAM :

Programming & Development : Alexandra Zaïnal
Original concept : Baudouin d'Aumeries
Technical & hardware support : Manuel Goepfert
Assistance : Marc-Olivier Méhu




SOURCES & CREDITS :

   NOAA       Earth
Advisory